Time;durP1;ratioP1;P1;durP2;ratioP2;P2;SDS_P1;SDS_P2;PMS_P1;PMS_P2;Temp;Humidity;BMP_temperature;BMP_pressure;BME280_temperature;BME280_humidity;BME280_pressure;Samples;Min_cycle;Max_cycle;Signal;HPM_P1;HPM_P2
2022/03/02 00:00:04;;;;;;;28.20;21.17;;;7.80;97.70;;;;;;5033227;28;20072;-82
2022/03/02 00:02:30;;;;;;;30.33;22.08;;;7.80;97.70;;;;;;5049552;28;20045;-82
2022/03/02 00:04:56;;;;;;;32.08;21.92;;;7.80;97.60;;;;;;5049515;28;20516;-82
2022/03/02 00:07:22;;;;;;;31.42;21.25;;;7.80;97.60;;;;;;5049699;28;20146;-82
2022/03/02 00:09:47;;;;;;;30.73;22.33;;;7.80;97.70;;;;;;5049555;28;20490;-82
2022/03/02 00:12:13;;;;;;;29.40;21.50;;;7.80;97.90;;;;;;5049401;28;20032;-82
2022/03/02 00:14:38;;;;;;;29.90;22.38;;;7.70;97.90;;;;;;5049137;28;20120;-82
2022/03/02 00:17:04;;;;;;;34.20;22.25;;;7.70;98.00;;;;;;5049380;28;20045;-82
2022/03/02 00:19:30;;;;;;;30.20;21.02;;;7.70;98.10;;;;;;5053460;28;20037;-82
2022/03/02 00:21:56;;;;;;;32.85;22.65;;;7.70;98.00;;;;;;5053420;28;20521;-82
2022/03/02 00:24:21;;;;;;;34.10;22.15;;;7.70;97.90;;;;;;5053101;28;20437;-82
2022/03/02 00:26:47;;;;;;;30.73;20.48;;;7.70;97.80;;;;;;5036087;28;20037;-82
2022/03/02 00:29:13;;;;;;;28.17;20.92;;;7.70;97.70;;;;;;5036480;28;20073;-82
2022/03/02 00:31:39;;;;;;;30.73;22.63;;;7.70;97.70;;;;;;5052540;28;20075;-82
2022/03/02 00:34:04;;;;;;;31.58;21.88;;;7.70;97.80;;;;;;5052474;28;20049;-81
2022/03/02 00:36:31;;;;;;;30.38;21.40;;;7.70;97.80;;;;;;5033489;28;20045;-82
2022/03/02 00:38:57;;;;;;;31.40;21.85;;;7.70;97.80;;;;;;5052091;28;20132;-82
2022/03/02 00:41:22;;;;;;;31.38;22.42;;;7.70;97.80;;;;;;5052054;28;20047;-81
2022/03/02 00:43:48;;;;;;;30.80;22.85;;;7.70;97.70;;;;;;5052252;28;20130;-82
2022/03/02 00:46:15;;;;;;;30.83;22.00;;;7.70;97.80;;;;;;5052360;28;20082;-81
2022/03/02 00:48:41;;;;;;;32.25;22.42;;;7.70;97.90;;;;;;5051996;28;20116;-81
2022/03/02 00:51:07;;;;;;;31.38;21.85;;;7.60;97.90;;;;;;5051992;28;20124;-81
2022/03/02 00:53:33;;;;;;;33.63;22.67;;;7.70;97.90;;;;;;5035331;28;20095;-81
2022/03/02 00:55:58;;;;;;;29.70;22.00;;;7.60;97.90;;;;;;5051996;28;20044;-81
2022/03/02 00:58:24;;;;;;;30.73;22.45;;;7.60;97.90;;;;;;5051839;28;20044;-82
2022/03/02 01:00:50;;;;;;;30.35;20.98;;;7.60;97.90;;;;;;5035558;28;20040;-82
2022/03/02 01:03:15;;;;;;;30.23;22.75;;;7.60;97.90;;;;;;5051817;28;20052;-82
2022/03/02 01:05:41;;;;;;;31.15;22.33;;;7.60;98.00;;;;;;5035466;28;20645;-82
2022/03/02 01:08:07;;;;;;;32.95;23.13;;;7.60;98.00;;;;;;5035329;28;20025;-81
2022/03/02 01:10:33;;;;;;;31.33;22.23;;;7.60;98.10;;;;;;5051733;28;20438;-82
2022/03/02 01:12:58;;;;;;;32.95;22.00;;;7.50;98.10;;;;;;5035182;28;20037;-82
2022/03/02 01:15:24;;;;;;;34.63;22.95;;;7.50;98.20;;;;;;5051603;28;20485;-82
2022/03/02 01:17:50;;;;;;;35.42;23.50;;;7.50;98.30;;;;;;5034791;28;20044;-82
2022/03/02 01:20:15;;;;;;;33.28;22.85;;;7.50;98.30;;;;;;5051719;28;20040;-82
2022/03/02 01:22:41;;;;;;;35.15;23.98;;;7.50;98.30;;;;;;5051771;28;20126;-82
2022/03/02 01:25:09;;;;;;;34.13;23.73;;;7.50;98.30;;;;;;5051663;28;20041;-81
2022/03/02 01:27:34;;;;;;;34.75;23.48;;;7.50;98.30;;;;;;5051768;28;20033;-81
2022/03/02 01:30:00;;;;;;;31.65;22.27;;;7.50;98.30;;;;;;5028188;28;20040;-81
2022/03/02 01:32:26;;;;;;;34.25;22.67;;;7.50;98.30;;;;;;5051056;28;20087;-81
2022/03/02 01:34:51;;;;;;;32.30;23.05;;;7.40;98.30;;;;;;5071758;28;20040;-81
2022/03/02 01:37:17;;;;;;;30.98;22.58;;;7.40;98.30;;;;;;5071779;28;20044;-81
2022/03/02 01:39:43;;;;;;;33.25;23.48;;;7.40;98.40;;;;;;5071358;28;20041;-81
2022/03/02 01:42:09;;;;;;;35.88;23.70;;;7.40;98.50;;;;;;5055365;28;20131;-81
2022/03/02 01:44:37;;;;;;;34.58;23.77;;;7.40;98.50;;;;;;5071433;28;20032;-80
2022/03/02 01:47:04;;;;;;;33.72;23.88;;;7.30;98.50;;;;;;5071679;28;20037;-81
2022/03/02 01:49:30;;;;;;;35.25;23.85;;;7.30;98.60;;;;;;5054800;28;20505;-82
2022/03/02 01:51:56;;;;;;;31.77;21.88;;;7.30;98.70;;;;;;5054757;28;20115;-82
2022/03/02 01:54:22;;;;;;;31.65;21.70;;;7.20;98.80;;;;;;5054591;28;20044;-82
2022/03/02 01:56:49;;;;;;;34.03;23.55;;;7.20;98.90;;;;;;5071111;28;20040;-81
2022/03/02 01:59:14;;;;;;;34.42;23.90;;;7.20;98.90;;;;;;5054996;28;20072;-82
2022/03/02 02:01:40;;;;;;;31.98;22.70;;;7.20;99.10;;;;;;5070980;28;20496;-82
2022/03/02 02:04:06;;;;;;;32.90;23.25;;;7.10;99.20;;;;;;5070897;28;20044;-81
2022/03/02 02:06:31;;;;;;;35.55;24.30;;;7.10;99.40;;;;;;5067017;28;20032;-81
2022/03/02 02:08:58;;;;;;;32.67;22.63;;;7.10;99.50;;;;;;5067346;28;20090;-82
2022/03/02 02:11:24;;;;;;;33.95;23.35;;;7.00;99.60;;;;;;5050926;28;20119;-82
2022/03/02 02:13:50;;;;;;;33.45;23.95;;;7.00;99.90;;;;;;5051001;28;20119;-82
2022/03/02 02:16:17;;;;;;;34.22;22.58;;;7.00;99.90;;;;;;5050978;28;20037;-82
2022/03/02 02:18:43;;;;;;;33.00;23.75;;;7.00;99.90;;;;;;5050693;28;20052;-82
2022/03/02 02:21:09;;;;;;;34.25;23.83;;;7.00;99.90;;;;;;5051119;28;20041;-82
2022/03/02 02:23:37;;;;;;;31.27;23.30;;;7.00;99.90;;;;;;5050731;28;20124;-82
2022/03/02 02:26:04;;;;;;;35.22;23.83;;;7.00;99.90;;;;;;5034204;28;20047;-82
2022/03/02 02:28:31;;;;;;;33.75;24.20;;;7.00;99.90;;;;;;5050699;28;20072;-82
2022/03/02 02:30:58;;;;;;;35.72;23.13;;;7.00;99.90;;;;;;5034148;28;20048;-82
2022/03/02 02:33:25;;;;;;;33.97;22.88;;;7.00;99.90;;;;;;5050577;28;20079;-82
2022/03/02 02:35:51;;;;;;;36.55;24.33;;;7.00;99.90;;;;;;5050434;28;20044;-82
2022/03/02 02:38:18;;;;;;;34.63;24.58;;;7.00;99.90;;;;;;5033645;28;20071;-82
2022/03/02 02:40:43;;;;;;;33.42;23.98;;;7.00;99.90;;;;;;5050079;28;20502;-82
2022/03/02 02:43:09;;;;;;;34.72;23.67;;;7.00;99.90;;;;;;5050315;28;20135;-82
2022/03/02 02:45:35;;;;;;;32.65;24.02;;;7.00;99.90;;;;;;5033975;28;20051;-82
2022/03/02 02:48:01;;;;;;;32.03;23.30;;;6.90;99.90;;;;;;5033935;28;20037;-82
2022/03/02 02:50:29;;;;;;;35.20;23.77;;;6.90;99.90;;;;;;5050451;28;20482;-82
2022/03/02 02:52:57;;;;;;;35.53;24.77;;;6.90;99.90;;;;;;5033611;28;20077;-82
2022/03/02 02:55:25;;;;;;;34.45;23.25;;;7.00;99.90;;;;;;5050660;28;20367;-82
2022/03/02 02:57:51;;;;;;;33.88;23.92;;;6.90;99.90;;;;;;5049822;28;20041;-82
2022/03/02 03:00:19;;;;;;;35.03;22.60;;;6.90;99.90;;;;;;5050583;28;20040;-81
2022/03/02 03:02:47;;;;;;;32.65;23.65;;;6.90;99.90;;;;;;5049909;28;20093;-82
2022/03/02 03:05:14;;;;;;;33.83;23.50;;;6.90;99.90;;;;;;5050063;28;20044;-82
2022/03/02 03:07:40;;;;;;;33.92;23.55;;;6.90;99.90;;;;;;5049854;28;20539;-81
2022/03/02 03:10:07;;;;;;;34.20;21.38;;;6.90;99.90;;;;;;5050009;28;20049;-81
2022/03/02 03:12:34;;;;;;;33.72;23.25;;;6.90;99.90;;;;;;5049930;28;20045;-82
2022/03/02 03:15:00;;;;;;;32.75;22.65;;;6.90;99.90;;;;;;5050252;28;20041;-82
2022/03/02 03:17:26;;;;;;;32.80;22.60;;;6.90;99.90;;;;;;5049993;28;20498;-81
2022/03/02 03:19:51;;;;;;;34.47;23.95;;;6.90;99.90;;;;;;5050067;28;20041;-82
2022/03/02 03:22:17;;;;;;;32.53;22.83;;;6.80;99.90;;;;;;5049955;28;20536;-82
2022/03/02 03:24:43;;;;;;;34.78;23.48;;;6.80;99.90;;;;;;5033391;28;20056;-82
2022/03/02 03:27:08;;;;;;;35.85;24.88;;;6.80;99.90;;;;;;5033164;28;20049;-82
2022/03/02 03:29:34;;;;;;;34.83;22.90;;;6.80;99.90;;;;;;5049771;28;20106;-82
2022/03/02 03:31:59;;;;;;;34.13;22.40;;;6.80;99.90;;;;;;5049666;28;20079;-82
2022/03/02 03:34:25;;;;;;;34.97;22.90;;;6.80;99.90;;;;;;5049799;28;20156;-82
2022/03/02 03:36:52;;;;;;;34.08;22.85;;;6.80;99.90;;;;;;5049765;28;20037;-81
2022/03/02 03:39:18;;;;;;;33.13;23.15;;;6.70;99.90;;;;;;5049857;28;20041;-81
2022/03/02 03:41:44;;;;;;;31.23;22.20;;;6.70;99.90;;;;;;5049334;28;20040;-82
2022/03/02 03:44:10;;;;;;;33.40;21.63;;;6.70;99.90;;;;;;5049785;28;20391;-82
2022/03/02 03:46:35;;;;;;;35.72;24.48;;;6.70;99.90;;;;;;5033575;28;20082;-82
2022/03/02 03:49:01;;;;;;;38.15;23.80;;;6.70;99.90;;;;;;5049370;28;20754;-81
2022/03/02 03:51:27;;;;;;;33.22;21.90;;;6.70;99.90;;;;;;5033061;28;20040;-82
2022/03/02 03:53:52;;;;;;;34.22;23.10;;;6.70;99.90;;;;;;5052899;28;20068;-82
2022/03/02 03:56:18;;;;;;;36.63;23.83;;;6.70;99.90;;;;;;5053750;28;20123;-82
2022/03/02 03:58:44;;;;;;;32.08;23.38;;;6.70;99.90;;;;;;5053349;28;20110;-81
2022/03/02 04:01:09;;;;;;;36.05;22.88;;;6.70;99.90;;;;;;5053541;28;20036;-82
2022/03/02 04:03:36;;;;;;;34.95;22.17;;;6.70;99.90;;;;;;5052921;28;20037;-81
2022/03/02 04:06:02;;;;;;;32.28;21.52;;;6.60;99.90;;;;;;5053402;28;20044;-82
2022/03/02 04:08:28;;;;;;;34.22;22.77;;;6.60;99.90;;;;;;5036989;28;20398;-82
2022/03/02 04:10:53;;;;;;;33.35;22.95;;;6.60;99.90;;;;;;5053003;28;20037;-82
2022/03/02 04:13:19;;;;;;;32.45;21.25;;;6.60;99.90;;;;;;5053554;28;20047;-81
2022/03/02 04:15:45;;;;;;;33.17;22.92;;;6.60;99.90;;;;;;5053366;28;20037;-82
2022/03/02 04:18:12;;;;;;;36.30;24.70;;;6.60;99.90;;;;;;5053134;28;20037;-82
2022/03/02 04:20:38;;;;;;;33.28;22.42;;;6.60;99.90;;;;;;5036786;28;20397;-82
2022/03/02 04:23:04;;;;;;;35.42;23.65;;;6.60;99.90;;;;;;5053322;28;20410;-82
2022/03/02 04:25:30;;;;;;;33.72;23.45;;;6.60;99.90;;;;;;5053385;28;20044;-82
2022/03/02 04:27:56;;;;;;;32.10;23.30;;;6.60;99.90;;;;;;5052995;28;20433;-82
2022/03/02 04:30:22;;;;;;;32.38;21.95;;;6.50;99.90;;;;;;5053133;28;20515;-82
2022/03/02 04:32:48;;;;;;;35.92;23.67;;;6.50;99.90;;;;;;5052692;28;20095;-82
2022/03/02 04:35:13;;;;;;;35.22;22.95;;;6.50;99.90;;;;;;5061230;28;20037;-82
2022/03/02 04:37:41;;;;;;;35.78;23.42;;;6.50;99.90;;;;;;5052524;28;20136;-82
2022/03/02 04:40:09;;;;;;;32.85;23.33;;;6.50;99.90;;;;;;5052962;28;20182;-82
2022/03/02 04:42:35;;;;;;;33.90;22.08;;;6.50;99.90;;;;;;5052950;28;20048;-82
2022/03/02 04:45:01;;;;;;;34.15;22.77;;;6.40;99.90;;;;;;5052613;28;20053;-82
2022/03/02 04:47:26;;;;;;;34.92;23.67;;;6.50;99.90;;;;;;5035726;28;20036;-82
2022/03/02 04:49:52;;;;;;;36.95;22.88;;;6.50;99.90;;;;;;5052763;28;20048;-82
2022/03/02 04:52:18;;;;;;;34.65;22.90;;;6.50;99.90;;;;;;5052369;28;20131;-82
2022/03/02 04:57:29;;;;;;;36.03;22.67;;;6.40;99.90;;;;;;5052381;28;20041;-82
2022/03/02 04:59:55;;;;;;;37.05;23.13;;;6.40;99.90;;;;;;5052574;28;20080;-81
2022/03/02 05:02:20;;;;;;;34.10;24.25;;;6.40;99.90;;;;;;5035688;28;20133;-82
2022/03/02 05:04:46;;;;;;;34.60;23.42;;;6.40;99.90;;;;;;5052259;28;20044;-82
2022/03/02 05:07:12;;;;;;;34.72;22.88;;;6.40;99.90;;;;;;5052097;28;20033;-82
2022/03/02 05:09:38;;;;;;;36.83;23.63;;;6.40;99.90;;;;;;5052330;28;20486;-82
2022/03/02 05:12:04;;;;;;;37.63;22.90;;;6.40;99.90;;;;;;5035441;28;20076;-81
2022/03/02 05:14:30;;;;;;;35.85;22.52;;;6.40;99.90;;;;;;5052291;28;20079;-81
2022/03/02 05:16:56;;;;;;;31.85;23.90;;;6.40;99.90;;;;;;5035337;28;20609;-82
2022/03/02 05:19:21;;;;;;;36.03;23.38;;;6.40;99.90;;;;;;5052232;28;20123;-81
2022/03/02 05:21:47;;;;;;;36.25;24.25;;;6.40;99.90;;;;;;5052039;28;20037;-82
2022/03/02 05:24:14;;;;;;;35.95;23.90;;;6.40;99.90;;;;;;5051808;28;20095;-82
2022/03/02 05:26:40;;;;;;;32.20;22.60;;;6.40;99.90;;;;;;5035251;28;20482;-82
2022/03/02 05:29:05;;;;;;;33.25;23.25;;;6.40;99.90;;;;;;5051827;28;20127;-82
2022/03/02 05:31:31;;;;;;;33.95;23.50;;;6.40;99.90;;;;;;5035034;28;20124;-82
2022/03/02 05:33:57;;;;;;;37.42;23.58;;;6.40;99.90;;;;;;5052046;28;20457;-81
2022/03/02 05:36:24;;;;;;;34.38;22.50;;;6.40;99.90;;;;;;5051914;28;20041;-82
2022/03/02 05:38:49;;;;;;;33.40;21.40;;;6.30;99.90;;;;;;5035030;28;20524;-81
2022/03/02 05:41:15;;;;;;;35.67;22.27;;;6.40;99.90;;;;;;5051307;28;20123;-82
2022/03/02 05:43:41;;;;;;;34.55;22.33;;;6.30;99.90;;;;;;5051594;28;20084;-81
2022/03/02 05:46:06;;;;;;;34.35;22.17;;;6.40;99.90;;;;;;5051513;28;20033;-82
2022/03/02 05:48:32;;;;;;;35.40;22.77;;;6.30;99.90;;;;;;5051474;28;20108;-82
2022/03/02 05:50:57;;;;;;;33.35;22.63;;;6.30;99.90;;;;;;5051556;28;20083;-82
2022/03/02 05:53:23;;;;;;;32.38;23.02;;;6.30;99.90;;;;;;5034756;28;20041;-82
2022/03/02 05:55:48;;;;;;;34.97;21.83;;;6.30;99.90;;;;;;5034820;28;20045;-81
2022/03/02 05:58:14;;;;;;;37.30;22.77;;;6.30;99.90;;;;;;5051034;28;20498;-82
2022/03/02 06:00:41;;;;;;;34.38;22.58;;;6.30;99.90;;;;;;5051335;28;20037;-82
2022/03/02 06:03:08;;;;;;;34.78;23.58;;;6.30;99.90;;;;;;5051082;28;20119;-82
2022/03/02 06:05:34;;;;;;;34.45;23.25;;;6.30;99.90;;;;;;5051172;28;20124;-81
2022/03/02 06:07:59;;;;;;;32.67;22.55;;;6.30;99.90;;;;;;5050831;28;20079;-82
2022/03/02 06:10:25;;;;;;;35.50;23.83;;;6.30;99.90;;;;;;5050719;28;20056;-81
2022/03/02 06:12:51;;;;;;;38.95;24.77;;;6.20;99.90;;;;;;5034336;28;20048;-82
2022/03/02 06:15:17;;;;;;;34.55;23.77;;;6.20;99.90;;;;;;5034088;28;20047;-82
2022/03/02 06:17:43;;;;;;;34.92;23.20;;;6.20;99.90;;;;;;5050798;28;20119;-82
2022/03/02 06:20:09;;;;;;;35.53;24.20;;;6.20;99.90;;;;;;5050959;28;20394;-82
2022/03/02 06:22:36;;;;;;;35.42;23.83;;;6.20;99.90;;;;;;5050934;28;20512;-82
2022/03/02 06:25:02;;;;;;;33.05;23.08;;;6.20;99.90;;;;;;5050788;28;20123;-82
2022/03/02 06:27:28;;;;;;;32.90;23.20;;;6.20;99.90;;;;;;5034060;28;20087;-82
2022/03/02 06:29:53;;;;;;;38.05;24.60;;;6.20;99.90;;;;;;5050953;28;20068;-81
2022/03/02 06:32:19;;;;;;;32.60;22.05;;;6.20;99.90;;;;;;5033965;28;20519;-81
2022/03/02 06:34:45;;;;;;;36.33;23.73;;;6.20;99.90;;;;;;5050382;28;20037;-82
2022/03/02 06:37:11;;;;;;;33.83;23.42;;;6.20;99.90;;;;;;5049691;28;20041;-82
2022/03/02 06:39:36;;;;;;;35.53;23.65;;;6.20;99.90;;;;;;5050229;28;20082;-82
2022/03/02 06:42:15;;;;;;;33.70;23.08;;;6.20;99.90;;;;;;5033754;28;20037;-82
2022/03/02 06:45:00;;;;;;;34.90;23.38;;;6.20;99.90;;;;;;5051567;28;20063;-81
2022/03/02 06:47:29;;;;;;;35.13;22.45;;;6.20;99.90;;;;;;5050567;28;20037;-81
2022/03/02 06:49:57;;;;;;;36.55;23.33;;;6.20;99.90;;;;;;5050611;28;20037;-81
2022/03/02 06:52:34;;;;;;;37.65;22.98;;;6.20;99.90;;;;;;5033608;28;20041;-81
2022/03/02 06:55:03;;;;;;;35.20;22.02;;;6.20;99.90;;;;;;5033876;28;20127;-81
2022/03/02 06:57:30;;;;;;;31.15;23.20;;;6.30;99.90;;;;;;5033420;28;20136;-81
2022/03/02 07:00:06;;;;;;;33.17;22.10;;;6.30;99.90;;;;;;5050256;28;20041;-81
2022/03/02 07:02:43;;;;;;;31.35;22.25;;;6.30;99.90;;;;;;5033594;28;20445;-80
2022/03/02 07:05:10;;;;;;;33.72;23.15;;;6.30;99.90;;;;;;5042727;28;20045;-81
2022/03/02 07:07:36;;;;;;;32.42;22.02;;;6.30;99.90;;;;;;5047395;28;20087;-81
2022/03/02 07:10:06;;;;;;;30.35;21.40;;;6.30;99.90;;;;;;5031203;28;20029;-81
2022/03/02 07:12:32;;;;;;;36.53;23.70;;;6.30;99.90;;;;;;5050271;28;20045;-81
2022/03/02 07:14:58;;;;;;;33.75;22.65;;;6.30;99.90;;;;;;5050287;28;20041;-81
2022/03/02 07:17:26;;;;;;;32.13;22.30;;;6.40;99.90;;;;;;5050068;28;20045;-81
2022/03/02 07:19:52;;;;;;;34.30;22.88;;;6.40;99.90;;;;;;5033525;28;20044;-81
2022/03/02 07:22:21;;;;;;;32.55;22.70;;;6.40;99.90;;;;;;5050194;28;20036;-81
2022/03/02 07:25:26;;;;;;;36.00;22.08;;;6.40;99.90;;;;;;5048879;28;20130;-82
2022/03/02 07:27:55;;;;;;;32.67;21.67;;;6.40;99.90;;;;;;5051231;28;20568;-81
2022/03/02 07:30:21;;;;;;;32.95;22.20;;;6.40;99.90;;;;;;5054177;28;20048;-82
2022/03/02 07:32:47;;;;;;;37.17;23.52;;;6.40;99.90;;;;;;5053815;28;20056;-82
2022/03/02 07:35:15;;;;;;;33.28;22.85;;;6.50;99.90;;;;;;5073916;28;20080;-82
2022/03/02 07:37:43;;;;;;;32.80;21.77;;;6.40;99.90;;;;;;5057094;28;20408;-81
2022/03/02 07:40:10;;;;;;;33.92;21.60;;;6.40;99.90;;;;;;5073942;28;20050;-81
2022/03/02 07:42:36;;;;;;;33.38;21.70;;;6.50;99.90;;;;;;5073882;28;20049;-81
2022/03/02 07:45:04;;;;;;;32.42;21.70;;;6.50;99.90;;;;;;5073883;28;20071;-81
2022/03/02 07:47:30;;;;;;;33.45;21.35;;;6.50;99.90;;;;;;5057350;28;20492;-81
2022/03/02 07:49:55;;;;;;;33.33;21.73;;;6.60;99.90;;;;;;5073867;28;20102;-82
2022/03/02 07:52:25;;;;;;;31.55;21.10;;;6.60;99.90;;;;;;5073896;28;20032;-81
2022/03/02 07:54:57;;;;;;;30.15;20.35;;;6.60;99.90;;;;;;5073547;28;20078;-82
2022/03/02 07:57:23;;;;;;;32.65;21.95;;;6.60;99.90;;;;;;5067529;28;20045;-81
2022/03/02 07:59:50;;;;;;;31.58;20.85;;;6.70;99.90;;;;;;5055849;28;20502;-82
2022/03/02 08:02:20;;;;;;;31.67;21.95;;;6.70;99.90;;;;;;5052953;28;20091;-82
2022/03/02 08:04:50;;;;;;;30.60;20.65;;;6.80;99.90;;;;;;5053317;28;20041;-82
2022/03/02 08:07:15;;;;;;;31.73;21.65;;;6.80;99.80;;;;;;5052924;28;20040;-81
2022/03/02 08:09:42;;;;;;;30.55;20.55;;;6.80;99.70;;;;;;5036581;28;20037;-81
2022/03/02 08:12:08;;;;;;;30.25;21.67;;;6.80;99.50;;;;;;5036792;28;20041;-82
2022/03/02 08:14:34;;;;;;;29.98;20.15;;;6.80;99.30;;;;;;5054614;28;20536;-81
2022/03/02 08:16:59;;;;;;;31.45;20.20;;;6.90;99.30;;;;;;5053019;28;20106;-82
2022/03/02 08:19:25;;;;;;;33.22;20.80;;;6.90;99.10;;;;;;5036604;28;20072;-82
2022/03/02 08:22:02;;;;;;;31.48;21.38;;;6.90;98.90;;;;;;5052666;28;20079;-82
2022/03/02 08:24:29;;;;;;;30.73;21.10;;;6.90;98.70;;;;;;5052601;28;20542;-82
2022/03/02 08:27:03;;;;;;;29.70;19.73;;;6.90;98.60;;;;;;5035491;28;20418;-81
2022/03/02 08:29:32;;;;;;;30.73;19.75;;;7.00;98.30;;;;;;5051160;28;20037;-81
2022/03/02 08:32:02;;;;;;;28.67;19.60;;;7.00;98.10;;;;;;5050248;28;20517;-81
2022/03/02 08:34:29;;;;;;;30.58;20.48;;;7.10;98.30;;;;;;5050530;28;20041;-81
2022/03/02 08:36:55;;;;;;;30.80;21.95;;;7.20;98.20;;;;;;5050182;28;20123;-81
2022/03/02 08:39:22;;;;;;;30.20;21.23;;;7.30;98.10;;;;;;5049715;28;20090;-81
2022/03/02 08:41:48;;;;;;;34.97;20.58;;;7.40;97.90;;;;;;5050228;28;20321;-81
2022/03/02 08:44:14;;;;;;;27.38;19.33;;;7.50;97.70;;;;;;5052318;28;20052;-81
2022/03/02 08:46:41;;;;;;;29.52;20.48;;;7.60;97.40;;;;;;5052098;28;20040;-80
2022/03/02 08:49:07;;;;;;;28.08;19.08;;;7.70;97.40;;;;;;5051029;28;20040;-81
2022/03/02 08:51:35;;;;;;;29.35;19.27;;;7.80;97.30;;;;;;5051980;28;20040;-81
2022/03/02 08:54:03;;;;;;;26.52;17.15;;;7.90;96.60;;;;;;5035312;28;20045;-82
2022/03/02 08:56:32;;;;;;;29.13;18.48;;;7.90;95.90;;;;;;5034945;28;20080;-82
2022/03/02 08:59:00;;;;;;;32.33;19.73;;;8.00;95.50;;;;;;5051575;28;20047;-81
2022/03/02 09:01:28;;;;;;;27.23;17.48;;;8.00;95.10;;;;;;5051722;28;20087;-81
2022/03/02 09:03:57;;;;;;;26.15;18.23;;;8.10;94.60;;;;;;5056253;28;20068;-80
2022/03/02 09:06:25;;;;;;;27.02;18.00;;;8.20;94.20;;;;;;5054517;28;20040;-82
2022/03/02 09:08:50;;;;;;;28.73;17.65;;;8.30;94.10;;;;;;5054579;28;20048;-81
2022/03/02 09:11:16;;;;;;;26.73;18.58;;;8.40;93.70;;;;;;5071659;28;20039;-81
2022/03/02 09:13:41;;;;;;;25.42;16.70;;;8.50;93.10;;;;;;5070938;28;20078;-82
2022/03/02 09:16:08;;;;;;;28.17;18.25;;;8.60;92.50;;;;;;5071469;28;20040;-81
2022/03/02 09:18:34;;;;;;;28.63;18.70;;;8.60;92.30;;;;;;5053908;28;20082;-81
2022/03/02 09:21:03;;;;;;;24.67;17.45;;;8.70;91.80;;;;;;5071063;28;20052;-81
2022/03/02 09:23:31;;;;;;;25.88;17.75;;;8.80;90.90;;;;;;5054450;28;20496;-82
2022/03/02 09:26:04;;;;;;;25.27;17.35;;;8.80;90.50;;;;;;5054483;28;20413;-81
2022/03/02 09:28:35;;;;;;;24.92;16.55;;;9.00;90.10;;;;;;5071234;28;20090;-81
2022/03/02 09:31:03;;;;;;;24.45;16.15;;;9.10;90.10;;;;;;5071342;28;20036;-81
2022/03/02 09:33:30;;;;;;;24.98;16.83;;;9.10;87.90;;;;;;5071092;28;20093;-81
2022/03/02 09:35:56;;;;;;;25.02;16.00;;;9.20;87.20;;;;;;5071565;28;20036;-82
2022/03/02 09:38:27;;;;;;;23.52;15.73;;;9.30;86.60;;;;;;5071414;28;20040;-81
2022/03/02 09:40:55;;;;;;;23.38;15.43;;;9.40;85.20;;;;;;5070905;28;20036;-82
2022/03/02 09:43:25;;;;;;;24.25;15.57;;;9.50;83.40;;;;;;5071285;28;20048;-82
2022/03/02 09:45:56;;;;;;;23.65;16.15;;;9.60;81.50;;;;;;5070869;28;20044;-81
2022/03/02 09:48:31;;;;;;;23.83;16.10;;;9.70;81.00;;;;;;5070957;28;20040;-81
2022/03/02 09:51:00;;;;;;;22.42;15.18;;;9.80;79.60;;;;;;5070164;28;20028;-81
2022/03/02 09:53:28;;;;;;;24.23;16.25;;;9.80;79.30;;;;;;5070543;28;20032;-82
2022/03/02 09:56:01;;;;;;;24.17;16.08;;;9.80;78.30;;;;;;5054322;28;20397;-82
2022/03/02 09:58:28;;;;;;;25.15;16.42;;;9.80;77.80;;;;;;5070593;28;20041;-81
2022/03/02 10:00:58;;;;;;;25.92;18.05;;;9.90;78.30;;;;;;5070762;28;20047;-82
2022/03/02 10:03:27;;;;;;;23.35;16.25;;;10.00;78.40;;;;;;5053732;28;20040;-82
2022/03/02 10:05:53;;;;;;;23.98;16.63;;;10.20;77.80;;;;;;5070156;28;20502;-81
2022/03/02 10:08:21;;;;;;;23.20;16.38;;;10.30;75.90;;;;;;5070470;28;20124;-81
2022/03/02 10:10:48;;;;;;;24.48;17.50;;;10.50;75.40;;;;;;5070406;28;20044;-82
2022/03/02 10:13:16;;;;;;;22.67;16.00;;;10.60;74.90;;;;;;5053896;28;20085;-81
2022/03/02 10:15:43;;;;;;;25.17;17.50;;;10.70;74.50;;;;;;5052920;28;20040;-82
2022/03/02 10:18:13;;;;;;;22.63;16.45;;;10.80;73.10;;;;;;5062260;28;20029;-82
2022/03/02 10:20:42;;;;;;;25.35;17.60;;;10.90;72.40;;;;;;5050362;28;20037;-82
2022/03/02 10:23:36;;;;;;;25.20;17.17;;;10.90;72.00;;;;;;5050716;28;20041;-82
2022/03/02 10:26:11;;;;;;;22.13;16.02;;;11.00;71.10;;;;;;5050605;28;20045;-82
2022/03/02 10:29:03;;;;;;;24.02;17.95;;;11.10;71.60;;;;;;5050169;28;20052;-82
2022/03/02 10:31:48;;;;;;;22.75;14.93;;;11.20;70.60;;;;;;5034051;28;20522;-82
2022/03/02 10:34:26;;;;;;;23.77;17.77;;;11.20;69.90;;;;;;5033672;28;20507;-82
2022/03/02 10:37:17;;;;;;;24.13;16.55;;;11.30;70.00;;;;;;5050078;28;20048;-82
2022/03/02 10:39:57;;;;;;;23.10;16.75;;;11.40;69.20;;;;;;5049936;28;20037;-83
2022/03/02 10:42:30;;;;;;;26.02;17.63;;;11.50;67.70;;;;;;5050455;28;20120;-82
2022/03/02 10:45:26;;;;;;;22.95;16.60;;;11.60;66.90;;;;;;5050246;28;20045;-82
2022/03/02 10:48:01;;;;;;;24.48;17.67;;;11.70;67.80;;;;;;5048334;28;20068;-81
2022/03/02 10:50:30;;;;;;;23.23;16.85;;;11.90;66.70;;;;;;5040800;28;20033;-82
2022/03/02 10:52:57;;;;;;;22.95;17.60;;;12.00;67.40;;;;;;5050127;28;20064;-82
2022/03/02 10:55:23;;;;;;;23.10;16.73;;;12.10;67.40;;;;;;5037860;28;20041;-82
2022/03/02 10:57:51;;;;;;;22.08;16.48;;;12.20;66.40;;;;;;5030211;28;20384;-82
2022/03/02 11:00:19;;;;;;;22.17;16.42;;;12.30;66.20;;;;;;5045326;28;20085;-82
2022/03/02 11:02:47;;;;;;;21.17;16.48;;;12.50;66.00;;;;;;5031750;28;20041;-82
2022/03/02 11:05:16;;;;;;;26.90;18.88;;;12.70;66.00;;;;;;5067660;28;20045;-81
2022/03/02 11:07:42;;;;;;;23.23;17.17;;;12.80;65.20;;;;;;5069724;28;20032;-82
2022/03/02 11:10:11;;;;;;;21.77;17.42;;;12.90;63.70;;;;;;5069955;28;20036;-82
2022/03/02 11:12:45;;;;;;;22.63;16.58;;;13.00;62.30;;;;;;5068829;28;20044;-82
2022/03/02 11:15:12;;;;;;;23.70;17.08;;;13.10;61.60;;;;;;5070077;28;20067;-82
2022/03/02 11:17:50;;;;;;;22.67;16.00;;;13.20;60.00;;;;;;5069921;28;20051;-82
2022/03/02 11:20:16;;;;;;;24.77;16.48;;;13.30;59.00;;;;;;5069205;28;20041;-82
2022/03/02 11:22:57;;;;;;;21.67;16.25;;;13.40;59.00;;;;;;5069261;28;20040;-82
2022/03/02 11:25:40;;;;;;;20.33;15.68;;;13.50;57.90;;;;;;5069741;28;20090;-82
2022/03/02 11:28:07;;;;;;;20.45;16.17;;;13.60;57.30;;;;;;5069574;28;20041;-81
2022/03/02 11:30:34;;;;;;;24.40;18.52;;;13.60;57.30;;;;;;5069780;28;20033;-81
2022/03/02 11:33:06;;;;;;;21.17;16.48;;;13.70;56.90;;;;;;5052941;28;20048;-82
2022/03/02 11:35:35;;;;;;;;;;;13.70;56.40;;;;;;5069922;28;20044;-82
2022/03/02 11:38:04;;;;;;;24.58;16.90;;;13.80;55.30;;;;;;5069426;28;20019;-83
2022/03/02 11:40:47;;;;;;;20.45;16.73;;;13.80;56.80;;;;;;5069183;28;20162;-81
2022/03/02 11:43:22;;;;;;;21.90;16.45;;;14.00;56.10;;;;;;5052284;28;20089;-82
2022/03/02 11:45:56;;;;;;;19.95;16.20;;;14.10;56.10;;;;;;5052080;28;20041;-82
2022/03/02 11:48:28;;;;;;;20.83;16.75;;;14.20;55.30;;;;;;5052658;28;20039;-82
2022/03/02 11:51:10;;;;;;;21.52;16.58;;;14.30;54.70;;;;;;5069572;28;20029;-82
2022/03/02 11:53:41;;;;;;;21.40;16.55;;;14.40;55.30;;;;;;5070035;28;20170;-82
2022/03/02 11:56:10;;;;;;;19.63;15.40;;;14.50;53.50;;;;;;5069902;28;20032;-82
2022/03/02 11:59:14;;;;;;;19.60;16.27;;;14.60;53.00;;;;;;5052925;28;20052;-82
2022/03/02 12:01:53;;;;;;;23.48;18.25;;;14.70;53.40;;;;;;5069204;28;20057;-82
2022/03/02 12:04:19;;;;;;;21.33;16.08;;;14.80;53.50;;;;;;5056680;28;20029;-82
2022/03/02 12:06:52;;;;;;;22.15;17.48;;;15.10;54.50;;;;;;5048873;28;21365;-82
2022/03/02 12:09:37;;;;;;;21.90;16.75;;;15.20;53.40;;;;;;5048935;28;20494;-82
2022/03/02 12:12:17;;;;;;;19.83;16.52;;;15.40;52.00;;;;;;5047832;28;20041;-82
2022/03/02 12:14:53;;;;;;;20.10;15.63;;;15.40;53.20;;;;;;5050135;28;20037;-83
2022/03/02 12:17:30;;;;;;;20.73;16.58;;;15.60;54.00;;;;;;5050835;28;20084;-83
2022/03/02 12:19:59;;;;;;;21.95;17.77;;;15.80;52.20;;;;;;5053044;28;20106;-83
2022/03/02 12:22:35;;;;;;;20.55;16.17;;;15.90;52.80;;;;;;5053179;28;20044;-83
2022/03/02 12:25:02;;;;;;;20.45;15.15;;;16.10;51.50;;;;;;5052743;28;20068;-82
2022/03/02 12:27:28;;;;;;;19.15;14.70;;;16.20;51.10;;;;;;5058856;28;20086;-82
2022/03/02 12:29:59;;;;;;;21.77;17.27;;;16.40;50.70;;;;;;5073708;28;20037;-82
2022/03/02 12:32:30;;;;;;;19.13;15.70;;;16.50;51.10;;;;;;5073761;28;20040;-83
2022/03/02 12:34:58;;;;;;;19.60;15.10;;;16.70;51.20;;;;;;5074598;28;20059;-82
2022/03/02 12:37:25;;;;;;;19.08;15.75;;;16.80;50.00;;;;;;5073217;28;20186;-83
2022/03/02 12:39:52;;;;;;;20.38;15.40;;;16.80;49.00;;;;;;5073068;28;20383;-82
2022/03/02 12:42:18;;;;;;;20.30;14.93;;;16.90;49.90;;;;;;5072705;28;20125;-83